Terminal Aerodrome Forecast
Issued by NWS

Home | Current Version | Previous Version | Text Only | Print | Product List | Glossary On
Versions: 1 2 3 4 5 6 7 8 9 10 11 12 13
000
FTUS46 KLOX 311100
TAFLGB
TAF
KLGB 311125Z 3112/0112 VRB03KT P6SM SKC
     FM311800 19007KT P6SM SKC
     FM010000 31010KT P6SM SKC
     FM010400 VRB03KT P6SM SKC
     FM011000 VRB03KT P6SM BKN008=

USA.gov is the U.S. government's official web portal to all federal, state and local government web resources and services.